createdAt,value
2019-05-21T00:02:44.213Z,6.50
2019-05-21T00:05:30.524Z,6.63
2019-05-21T00:08:16.096Z,6.73
2019-05-21T00:11:02.324Z,7.50
2019-05-21T00:13:48.345Z,6.67
2019-05-21T00:16:34.417Z,7.07
2019-05-21T00:19:20.666Z,6.80
2019-05-21T00:22:06.724Z,7.30
2019-05-21T00:24:52.440Z,7.50
2019-05-21T00:27:38.628Z,7.07
2019-05-21T00:30:42.950Z,7.10
2019-05-21T00:33:47.218Z,7.17
2019-05-21T00:36:52.985Z,6.60
2019-05-21T00:39:57.041Z,7.27
2019-05-21T00:42:43.528Z,7.30
2019-05-21T00:45:29.346Z,6.97
2019-05-21T00:48:15.572Z,6.50
2019-05-21T00:51:01.664Z,7.07
2019-05-21T00:53:47.256Z,7.30
2019-05-21T00:56:33.084Z,7.40
2019-05-21T00:59:19.192Z,7.23
2019-05-21T01:02:05.380Z,6.83
2019-05-21T01:05:00.333Z,6.87
2019-05-21T01:07:39.192Z,6.90
2019-05-21T01:10:25.304Z,7.00
2019-05-21T01:13:10.912Z,7.30
2019-05-21T01:15:56.529Z,7.77
2019-05-21T01:18:42.764Z,7.43
2019-05-21T01:21:29.266Z,7.77
2019-05-21T01:24:15.130Z,7.60
2019-05-21T01:27:01.353Z,7.20
2019-05-21T01:30:12.960Z,7.57
2019-05-21T01:33:26.922Z,7.37
2019-05-21T01:36:11.481Z,7.63
2019-05-21T01:38:57.464Z,8.07
2019-05-21T01:41:43.560Z,7.23
2019-05-21T01:44:29.725Z,8.10
2019-05-21T01:47:15.828Z,7.80
2019-05-21T01:50:01.985Z,7.60
2019-05-21T01:52:48.192Z,7.77
2019-05-21T01:55:33.860Z,7.80
2019-05-21T01:58:20.075Z,8.10
2019-05-21T02:01:06.132Z,7.97
2019-05-21T02:03:52.260Z,7.90
2019-05-21T02:06:38.632Z,8.73
2019-05-21T02:09:24.560Z,7.90
2019-05-21T02:12:10.876Z,7.53
2019-05-21T02:14:56.901Z,8.10
2019-05-21T02:17:42.493Z,7.33
2019-05-21T02:20:28.114Z,7.97
2019-05-21T02:23:14.228Z,7.23
2019-05-21T02:26:00.264Z,7.77
2019-05-21T02:28:45.999Z,8.57
2019-05-21T02:31:31.776Z,8.03
2019-05-21T02:34:17.953Z,7.83
2019-05-21T02:37:06.338Z,8.07
2019-05-21T02:39:51.924Z,8.17
2019-05-21T02:42:37.689Z,7.70
2019-05-21T02:45:23.905Z,7.50
2019-05-21T02:48:09.995Z,8.30
2019-05-21T02:50:56.192Z,8.37
2019-05-21T02:53:42.345Z,7.93
2019-05-21T02:56:28.437Z,7.50
2019-05-21T02:59:14.120Z,7.87
2019-05-21T03:02:22.222Z,7.60
2019-05-21T03:05:08.060Z,7.70
2019-05-21T03:07:53.661Z,7.47
2019-05-21T03:10:39.949Z,7.93
2019-05-21T03:13:26.050Z,7.63
2019-05-21T03:16:12.265Z,7.87
2019-05-21T03:18:58.487Z,7.57
2019-05-21T03:21:44.545Z,6.83
2019-05-21T03:24:30.254Z,7.50
2019-05-21T03:27:16.346Z,7.47
2019-05-21T03:30:02.524Z,7.47
2019-05-21T03:32:48.773Z,7.20
2019-05-21T03:35:34.887Z,7.60
2019-05-21T03:38:20.564Z,6.93
2019-05-21T03:41:06.858Z,7.97
2019-05-21T03:43:52.975Z,7.27
2019-05-21T03:46:38.691Z,7.10
2019-05-21T03:49:24.732Z,6.97
2019-05-21T03:52:10.864Z,6.83
2019-05-21T03:54:57.091Z,6.80
2019-05-21T03:57:43.172Z,6.90
2019-05-21T04:00:28.841Z,6.70
2019-05-21T04:03:15.084Z,6.90
2019-05-21T04:06:01.157Z,6.93
2019-05-21T04:08:47.385Z,6.70
2019-05-21T04:11:33.449Z,6.80
2019-05-21T04:14:35.937Z,6.53
2019-05-21T04:17:34.409Z,6.40
2019-05-21T04:20:17.338Z,6.07
2019-05-21T04:23:03.622Z,5.87
2019-05-21T04:25:49.822Z,6.33
2019-05-21T04:28:35.945Z,6.60
2019-05-21T04:31:21.777Z,6.07
2019-05-21T04:34:07.879Z,5.90
2019-05-21T04:37:09.432Z,6.07
2019-05-21T04:39:41.157Z,5.97
2019-05-21T04:42:27.317Z,5.90
2019-05-21T04:45:13.955Z,5.83
2019-05-21T04:48:00.006Z,5.77
2019-05-21T04:50:46.126Z,6.13
2019-05-21T04:53:32.295Z,6.43
2019-05-21T04:56:18.520Z,5.40
2019-05-21T04:59:04.748Z,5.67
2019-05-21T05:01:50.965Z,5.73
2019-05-21T05:04:36.550Z,6.13
2019-05-21T05:07:28.412Z,5.70
2019-05-21T05:10:10.336Z,5.87
2019-05-21T05:12:56.377Z,5.70
2019-05-21T05:15:42.160Z,5.70
2019-05-21T05:18:28.268Z,5.30
2019-05-21T05:21:13.971Z,5.70
2019-05-21T05:24:00.228Z,5.17
2019-05-21T05:26:46.302Z,5.23
2019-05-21T05:29:32.432Z,5.50
2019-05-21T05:32:18.691Z,5.03
2019-05-21T05:35:04.714Z,5.63
2019-05-21T05:37:50.795Z,5.27
2019-05-21T05:40:36.409Z,5.37
2019-05-21T05:43:22.424Z,4.93
2019-05-21T05:46:08.744Z,5.20
2019-05-21T05:49:06.709Z,5.00
2019-05-21T05:51:52.811Z,5.07
2019-05-21T05:54:39.088Z,5.10
2019-05-21T05:57:25.100Z,4.70
2019-05-21T06:00:12.006Z,4.90
2019-05-21T06:02:58.004Z,5.60
2019-05-21T06:05:44.067Z,5.03
2019-05-21T06:08:30.460Z,5.27
2019-05-21T06:11:16.364Z,5.03
2019-05-21T06:14:02.076Z,5.20
2019-05-21T06:16:48.195Z,5.17
2019-05-21T06:19:34.273Z,5.50
2019-05-21T06:22:20.565Z,5.27
2019-05-21T06:25:07.235Z,5.70
2019-05-21T06:27:53.321Z,4.70
2019-05-21T06:30:39.623Z,5.50
2019-05-21T06:33:25.698Z,5.37
2019-05-21T06:36:11.480Z,4.80
2019-05-21T06:38:57.445Z,5.33
2019-05-21T06:41:43.526Z,4.90
2019-05-21T06:44:29.218Z,4.77
2019-05-21T06:47:15.326Z,4.97
2019-05-21T06:50:01.557Z,5.03
2019-05-21T06:52:47.880Z,5.17
2019-05-21T06:55:33.940Z,5.10
2019-05-21T06:58:19.710Z,5.13
2019-05-21T07:01:05.772Z,4.83
2019-05-21T07:03:51.846Z,4.80
2019-05-21T07:06:37.821Z,4.70
2019-05-21T07:09:23.724Z,5.00
2019-05-21T07:12:09.884Z,4.73
2019-05-21T07:14:56.188Z,4.40
2019-05-21T07:17:41.870Z,5.07
2019-05-21T07:20:28.140Z,4.77
2019-05-21T07:23:14.353Z,4.53
2019-05-21T07:26:00.448Z,4.70
2019-05-21T07:28:46.362Z,4.93
2019-05-21T07:31:32.410Z,4.53
2019-05-21T07:34:18.362Z,4.43
2019-05-21T07:37:04.538Z,4.73
2019-05-21T07:39:50.671Z,4.40
2019-05-21T07:42:36.930Z,4.53
2019-05-21T07:45:23.013Z,4.20
2019-05-21T07:48:09.124Z,4.50
2019-05-21T07:50:55.363Z,4.27
2019-05-21T07:53:41.417Z,4.20
2019-05-21T07:56:27.417Z,4.30
2019-05-21T07:59:13.676Z,4.63
2019-05-21T08:01:59.842Z,4.30
2019-05-21T08:04:46.043Z,4.40
2019-05-21T08:07:32.390Z,4.10
2019-05-21T08:10:18.537Z,4.13
2019-05-21T08:13:04.808Z,4.20
2019-05-21T08:15:50.907Z,4.47
2019-05-21T08:18:36.997Z,3.90
2019-05-21T08:21:22.681Z,4.30
2019-05-21T08:24:08.337Z,4.13
2019-05-21T08:26:54.566Z,4.10
2019-05-21T08:29:40.652Z,4.60
2019-05-21T08:32:26.888Z,4.40
2019-05-21T08:35:13.006Z,4.40
2019-05-21T08:37:59.310Z,4.40
2019-05-21T08:40:46.165Z,4.60
2019-05-21T08:43:32.279Z,4.20
2019-05-21T08:46:18.597Z,4.20
2019-05-21T08:49:04.828Z,4.00
2019-05-21T08:51:51.078Z,4.03
2019-05-21T08:54:50.195Z,4.00
2019-05-21T08:57:35.914Z,4.67
2019-05-21T09:00:22.262Z,4.30
2019-05-21T09:03:08.117Z,4.43
2019-05-21T09:05:54.423Z,4.13
2019-05-21T09:08:40.480Z,4.03
2019-05-21T09:11:26.112Z,4.40
2019-05-21T09:14:11.872Z,4.50
2019-05-21T09:16:58.036Z,5.07
2019-05-21T09:19:43.709Z,4.77
2019-05-21T09:22:29.908Z,4.10
2019-05-21T09:25:15.731Z,4.60
2019-05-21T09:28:01.827Z,4.90
2019-05-21T09:30:47.849Z,4.50
2019-05-21T09:33:33.460Z,4.53
2019-05-21T09:36:19.148Z,4.60
2019-05-21T09:39:05.393Z,4.20
2019-05-21T09:41:51.509Z,4.63
2019-05-21T09:44:37.584Z,4.57
2019-05-21T09:47:23.176Z,4.50
2019-05-21T09:50:09.783Z,4.73
2019-05-21T09:52:56.029Z,4.80
2019-05-21T09:55:42.001Z,5.10
2019-05-21T09:58:42.308Z,4.73
2019-05-21T10:01:35.091Z,4.50
2019-05-21T10:04:20.721Z,4.40
2019-05-21T10:07:06.960Z,4.70
2019-05-21T10:09:53.047Z,4.73
2019-05-21T10:12:39.212Z,4.80
2019-05-21T10:15:25.305Z,4.60
2019-05-21T10:18:11.384Z,4.73
2019-05-21T10:20:57.608Z,5.23
2019-05-21T10:23:43.945Z,4.90
2019-05-21T10:26:30.215Z,4.80
2019-05-21T10:29:16.336Z,5.00
2019-05-21T10:32:02.572Z,4.73
2019-05-21T10:34:48.088Z,4.50
2019-05-21T10:37:33.914Z,5.03
2019-05-21T10:40:20.093Z,4.70
2019-05-21T10:43:06.139Z,5.20
2019-05-21T10:45:52.464Z,5.10
2019-05-21T10:48:38.561Z,4.80
2019-05-21T10:51:24.362Z,4.87
2019-05-21T10:54:10.641Z,5.33
2019-05-21T10:56:56.283Z,5.40
2019-05-21T10:59:42.052Z,5.13
2019-05-21T11:02:34.509Z,5.23
2019-05-21T11:05:24.004Z,5.13
2019-05-21T11:08:23.688Z,5.10
2019-05-21T11:10:57.444Z,4.90
2019-05-21T11:13:43.663Z,4.80
2019-05-21T11:16:29.842Z,5.10
2019-05-21T11:19:16.000Z,4.97
2019-05-21T11:22:02.167Z,5.13
2019-05-21T11:24:48.392Z,4.93
2019-05-21T11:27:34.460Z,5.30
2019-05-21T11:30:20.669Z,4.63
2019-05-21T11:33:06.842Z,4.87
2019-05-21T11:35:53.350Z,5.40
2019-05-21T11:38:40.468Z,5.10
2019-05-21T11:41:26.674Z,5.33
2019-05-21T11:44:12.902Z,5.30
2019-05-21T11:46:59.048Z,5.10
2019-05-21T11:49:45.248Z,4.97
2019-05-21T11:52:31.512Z,5.47
2019-05-21T11:55:17.600Z,4.73
2019-05-21T11:58:03.779Z,5.37
2019-05-21T12:00:50.072Z,5.03
2019-05-21T12:03:36.062Z,4.87
2019-05-21T12:06:22.332Z,5.33
2019-05-21T12:09:08.380Z,5.40
2019-05-21T12:11:54.450Z,5.53
2019-05-21T12:14:40.780Z,5.10
2019-05-21T12:17:26.437Z,4.90
2019-05-21T12:20:12.731Z,5.30
2019-05-21T12:22:58.789Z,5.33
2019-05-21T12:25:44.857Z,5.37
2019-05-21T12:28:31.007Z,4.67
2019-05-21T12:31:17.177Z,6.00
2019-05-21T12:34:03.309Z,5.67
2019-05-21T12:36:49.485Z,5.53
2019-05-21T12:39:35.421Z,5.23
2019-05-21T12:42:21.562Z,5.83
2019-05-21T12:45:07.943Z,4.83
2019-05-21T12:47:53.851Z,5.43
2019-05-21T12:50:39.965Z,6.30
2019-05-21T12:53:26.117Z,6.00
2019-05-21T12:56:12.178Z,5.97
2019-05-21T12:59:00.782Z,16.93
2019-05-21T13:01:46.604Z,5.93
2019-05-21T13:04:32.251Z,5.17
2019-05-21T13:07:17.986Z,5.70
2019-05-21T13:10:04.556Z,5.93
2019-05-21T13:12:50.853Z,5.47
2019-05-21T13:15:37.008Z,5.83
2019-05-21T13:18:22.702Z,5.67
2019-05-21T13:21:08.851Z,5.33
2019-05-21T13:23:55.214Z,6.20
2019-05-21T13:26:41.211Z,6.03
2019-05-21T13:29:27.024Z,6.23
2019-05-21T13:32:12.792Z,5.80
2019-05-21T13:34:58.736Z,5.80
2019-05-21T13:37:44.945Z,5.50
2019-05-21T13:40:31.852Z,5.73
2019-05-21T13:43:21.019Z,5.50
2019-05-21T13:46:05.458Z,5.60
2019-05-21T13:48:51.137Z,6.00
2019-05-21T13:51:37.316Z,5.77
2019-05-21T13:54:23.624Z,5.70
2019-05-21T13:57:09.692Z,5.97
2019-05-21T13:59:55.774Z,5.60
2019-05-21T14:02:41.969Z,5.60
2019-05-21T14:05:28.199Z,5.63
2019-05-21T14:08:14.206Z,5.90
2019-05-21T14:11:00.417Z,6.13
2019-05-21T14:13:46.401Z,5.70
2019-05-21T14:16:34.807Z,5.60
2019-05-21T14:19:20.315Z,6.10
2019-05-21T14:22:06.329Z,6.00
2019-05-21T14:24:52.500Z,5.67
2019-05-21T14:27:44.315Z,5.77
2019-05-21T14:30:26.347Z,6.00
2019-05-21T14:33:12.757Z,5.90
2019-05-21T14:35:58.901Z,5.70
2019-05-21T14:38:44.958Z,5.60
2019-05-21T14:41:31.167Z,5.07
2019-05-21T14:44:17.430Z,5.30
2019-05-21T14:47:03.618Z,5.37
2019-05-21T14:49:49.488Z,4.97
2019-05-21T14:52:35.688Z,5.60
2019-05-21T14:55:21.886Z,5.27
2019-05-21T14:58:08.329Z,5.10
2019-05-21T15:00:54.318Z,5.20
2019-05-21T15:03:40.645Z,5.40
2019-05-21T15:06:26.813Z,5.70
2019-05-21T15:09:12.488Z,5.53
2019-05-21T15:11:58.760Z,5.17
2019-05-21T15:14:44.836Z,4.87
2019-05-21T15:17:30.967Z,5.00
2019-05-21T15:20:45.535Z,5.53
2019-05-21T15:23:31.614Z,5.73
2019-05-21T15:26:17.871Z,6.27
2019-05-21T15:29:04.337Z,5.40
2019-05-21T15:31:50.366Z,5.47
2019-05-21T15:34:36.284Z,5.23
2019-05-21T15:37:22.301Z,5.30
2019-05-21T15:40:08.588Z,5.33
2019-05-21T15:42:54.500Z,5.33
2019-05-21T15:45:40.608Z,5.07
2019-05-21T15:48:27.236Z,5.30
2019-05-21T15:51:12.960Z,6.27
2019-05-21T15:53:59.130Z,5.17
2019-05-21T15:56:45.321Z,5.50
2019-05-21T15:59:31.374Z,5.60
2019-05-21T16:02:17.613Z,5.37
2019-05-21T16:05:03.748Z,5.10
2019-05-21T16:07:49.952Z,4.90
2019-05-21T16:10:36.329Z,5.20
2019-05-21T16:13:22.285Z,5.63
2019-05-21T16:16:08.331Z,5.70
2019-05-21T16:18:54.637Z,5.27
2019-05-21T16:21:40.690Z,5.60
2019-05-21T16:24:26.873Z,5.70
2019-05-21T16:27:13.185Z,5.40
2019-05-21T16:29:59.169Z,5.20
2019-05-21T16:32:45.024Z,5.60
2019-05-21T16:35:31.297Z,4.97
2019-05-21T16:38:17.395Z,5.43
2019-05-21T16:41:03.788Z,4.90
2019-05-21T16:43:49.765Z,5.20
2019-05-21T16:46:35.879Z,5.23
2019-05-21T16:49:22.480Z,5.53
2019-05-21T16:52:08.174Z,5.53
2019-05-21T16:54:54.463Z,5.30
2019-05-21T16:57:40.319Z,5.60
2019-05-21T17:00:26.796Z,5.20
2019-05-21T17:03:12.785Z,5.00
2019-05-21T17:05:58.812Z,5.90
2019-05-21T17:08:45.015Z,5.40
2019-05-21T17:11:31.140Z,5.10
2019-05-21T17:14:17.172Z,5.17
2019-05-21T17:17:03.424Z,5.63
2019-05-21T17:19:49.694Z,5.70
2019-05-21T17:22:35.804Z,5.90
2019-05-21T17:25:22.095Z,6.03
2019-05-21T17:28:08.217Z,5.37
2019-05-21T17:30:53.964Z,5.43
2019-05-21T17:33:40.288Z,5.50
2019-05-21T17:36:26.393Z,5.97
2019-05-21T17:39:12.225Z,5.10
2019-05-21T17:41:58.424Z,5.70
2019-05-21T17:45:08.947Z,5.80
2019-05-21T17:47:55.616Z,5.97
2019-05-21T17:50:44.612Z,6.10
2019-05-21T17:53:30.870Z,5.67
2019-05-21T17:56:17.031Z,5.77
2019-05-21T17:59:03.226Z,5.73
2019-05-21T18:01:50.506Z,6.27
2019-05-21T18:04:36.871Z,6.17
2019-05-21T18:07:22.652Z,6.13
2019-05-21T18:10:09.784Z,6.23
2019-05-21T18:12:55.953Z,6.13
2019-05-21T18:15:42.654Z,6.20
2019-05-21T18:18:28.900Z,6.07
2019-05-21T18:21:15.950Z,6.43
2019-05-21T18:24:02.067Z,6.47
2019-05-21T18:26:48.122Z,6.70
2019-05-21T18:29:34.344Z,6.90
2019-05-21T18:32:20.369Z,6.97
2019-05-21T18:35:06.742Z,6.80
2019-05-21T18:37:52.729Z,6.80
2019-05-21T18:40:38.757Z,7.10
2019-05-21T18:43:25.120Z,7.17
2019-05-21T18:46:11.085Z,6.67
2019-05-21T18:48:57.362Z,6.83
2019-05-21T18:51:43.496Z,7.20
2019-05-21T18:54:29.688Z,7.17
2019-05-21T18:57:16.200Z,7.60
2019-05-21T19:00:02.682Z,7.70
2019-05-21T19:02:48.704Z,8.27
2019-05-21T19:05:34.824Z,8.27
2019-05-21T19:08:21.074Z,7.97
2019-05-21T19:11:07.044Z,8.03
2019-05-21T19:13:53.268Z,7.87
2019-05-21T19:16:39.399Z,8.03
2019-05-21T19:19:25.669Z,7.67
2019-05-21T19:22:11.829Z,7.83
2019-05-21T19:24:58.010Z,7.80
2019-05-21T19:27:43.797Z,8.00
2019-05-21T19:30:30.254Z,8.90
2019-05-21T19:33:16.348Z,8.47
2019-05-21T19:36:02.624Z,8.70
2019-05-21T19:38:48.624Z,9.17
2019-05-21T19:41:34.848Z,9.00
2019-05-21T19:44:21.033Z,9.23
2019-05-21T19:47:06.649Z,9.50
2019-05-21T19:49:52.928Z,9.93
2019-05-21T19:52:39.164Z,9.13
2019-05-21T19:55:26.181Z,9.37
2019-05-21T19:58:12.330Z,9.53
2019-05-21T20:00:58.676Z,8.87
2019-05-21T20:03:44.950Z,10.20
2019-05-21T20:06:31.321Z,9.77
2019-05-21T20:09:18.459Z,10.37
2019-05-21T20:12:06.596Z,10.00
2019-05-21T20:14:53.261Z,10.10
2019-05-21T20:17:40.448Z,10.83
2019-05-21T20:20:26.981Z,10.70
2019-05-21T20:23:13.224Z,9.93
2019-05-21T20:25:59.811Z,10.63
2019-05-21T20:28:45.860Z,9.60
2019-05-21T20:31:32.122Z,9.60
2019-05-21T20:34:18.176Z,10.63
2019-05-21T20:37:05.198Z,10.23
2019-05-21T20:39:51.913Z,11.53
2019-05-21T20:42:39.129Z,10.73
2019-05-21T20:45:27.036Z,10.90
2019-05-21T20:48:15.731Z,10.33
2019-05-21T20:51:03.519Z,11.00
2019-05-21T20:53:49.292Z,10.13
2019-05-21T20:56:35.456Z,10.97
2019-05-21T20:59:21.152Z,11.03
2019-05-21T21:02:09.187Z,10.80
2019-05-21T21:04:55.220Z,10.63
2019-05-21T21:07:41.271Z,10.70
2019-05-21T21:10:27.420Z,10.87
2019-05-21T21:13:14.632Z,11.27
2019-05-21T21:16:00.252Z,11.03
2019-05-21T21:18:46.757Z,11.27
2019-05-21T21:21:32.793Z,11.60
2019-05-21T21:24:18.495Z,11.17
2019-05-21T21:27:05.265Z,11.40
2019-05-21T21:29:51.551Z,11.17
2019-05-21T21:32:37.948Z,11.77
2019-05-21T21:35:23.969Z,11.53
2019-05-21T21:38:10.669Z,11.57
2019-05-21T21:40:56.579Z,11.97
2019-05-21T21:43:42.846Z,11.60
2019-05-21T21:46:28.980Z,11.17
2019-05-21T21:49:17.130Z,12.03
2019-05-21T21:52:05.560Z,11.87
2019-05-21T21:54:51.496Z,11.63
2019-05-21T21:57:37.196Z,12.03
2019-05-21T22:01:00.280Z,11.80
2019-05-21T22:03:46.512Z,11.77
2019-05-21T22:06:34.848Z,11.90
2019-05-21T22:09:23.538Z,11.23
2019-05-21T22:12:11.984Z,11.33
2019-05-21T22:14:59.007Z,11.70
2019-05-21T22:17:45.191Z,12.23
2019-05-21T22:20:31.816Z,12.03
2019-05-21T22:23:18.503Z,12.30
2019-05-21T22:26:04.512Z,11.80
2019-05-21T22:28:50.124Z,12.13
2019-05-21T22:31:35.980Z,11.77
2019-05-21T22:34:22.164Z,11.60
2019-05-21T22:37:12.016Z,11.63
2019-05-21T22:39:57.709Z,11.60
2019-05-21T22:42:43.935Z,11.70
2019-05-21T22:45:30.060Z,10.97
2019-05-21T22:48:16.340Z,11.30
2019-05-21T22:51:02.238Z,11.57
2019-05-21T22:53:48.336Z,11.80
2019-05-21T22:56:34.658Z,11.33
2019-05-21T22:59:20.977Z,11.00
2019-05-21T23:02:10.787Z,11.40
2019-05-21T23:04:56.780Z,11.43
2019-05-21T23:07:42.355Z,11.27
2019-05-21T23:10:27.942Z,11.57
2019-05-21T23:13:14.200Z,12.13
2019-05-21T23:16:00.237Z,11.47
2019-05-21T23:18:46.524Z,11.57
2019-05-21T23:21:34.476Z,12.23
2019-05-21T23:24:22.883Z,11.63
2019-05-21T23:27:10.913Z,11.70
2019-05-21T23:29:56.944Z,11.67
2019-05-21T23:32:43.462Z,11.77
2019-05-21T23:35:29.380Z,11.40
2019-05-21T23:38:15.772Z,12.47
2019-05-21T23:41:02.876Z,12.23
2019-05-21T23:43:49.491Z,11.70
2019-05-21T23:46:35.457Z,11.80
2019-05-21T23:49:21.273Z,11.27
2019-05-21T23:52:07.284Z,12.00
2019-05-21T23:54:53.535Z,12.23
2019-05-21T23:57:39.831Z,11.40
